Time;durP1;ratioP1;P1;durP2;ratioP2;P2;SDS_P1;SDS_P2;PMS_P1;PMS_P2;Temp;Humidity;BMP_temperature;BMP_pressure;BME280_temperature;BME280_humidity;BME280_pressure;Samples;Min_cycle;Max_cycle;Signal;HPM_P1;HPM_P2
2023/10/27 00:01:04;;;;;;;11.27;2.60;;;;;;;;;;5031311;28;20227;-79
2023/10/27 00:03:32;;;;;;;9.60;2.00;;;;;;;;;;5030763;28;20757;-79
2023/10/27 00:05:59;;;;;;;11.60;1.93;;;;;;;;;;5030487;28;20634;-78
2023/10/27 00:08:26;;;;;;;8.30;1.87;;;;;;;;;;5031181;28;20192;-79
2023/10/27 00:10:54;;;;;;;9.93;1.73;;;;;;;;;;5031240;28;20243;-79
2023/10/27 00:13:21;;;;;;;10.73;2.07;;;;;;;;;;5030779;28;20208;-79
2023/10/27 00:15:49;;;;;;;10.90;2.23;;;;;;;;;;5031087;28;20287;-80
2023/10/27 00:18:17;;;;;;;9.60;1.87;;;;;;;;;;5030640;28;20288;-79
2023/10/27 00:20:44;;;;;;;9.77;1.60;;;;;;;;;;5030673;28;20747;-80
2023/10/27 00:23:11;;;;;;;8.37;2.07;;;;;;;;;;5030914;28;20205;-79
2023/10/27 00:25:38;;;;;;;11.70;1.87;;;;;;;;;;5030913;28;20295;-79
2023/10/27 00:28:06;;;;;;;8.03;1.90;;;;;;;;;;5031006;28;20351;-80
2023/10/27 00:30:33;;;;;;;12.33;1.80;;;;;;;;;;5030453;28;20319;-79
2023/10/27 00:33:01;;;;;;;12.93;2.37;;;;;;;;;;5030720;28;20232;-80
2023/10/27 00:35:28;;;;;;;12.10;2.20;;;;;;;;;;5031183;28;20295;-79
2023/10/27 00:37:57;;;;;;;13.23;2.17;;;;;;;;;;5034476;28;20251;-79
2023/10/27 00:40:24;;;;;;;10.93;2.10;;;;;;;;;;5034300;28;20660;-78
2023/10/27 00:42:52;;;;;;;12.30;2.30;;;;;;;;;;5034741;28;20342;-78
2023/10/27 00:45:20;;;;;;;11.87;2.00;;;;;;;;;;5034105;28;20196;-80
2023/10/27 00:47:47;;;;;;;13.50;1.90;;;;;;;;;;5034128;28;20196;-79
2023/10/27 00:50:16;;;;;;;11.43;2.30;;;;;;;;;;5033438;28;20242;-79
2023/10/27 00:52:43;;;;;;;7.60;1.67;;;;;;;;;;5034201;28;20288;-80
2023/10/27 00:55:11;;;;;;;12.10;2.10;;;;;;;;;;5034091;28;20201;-79
2023/10/27 00:57:39;;;;;;;7.23;1.90;;;;;;;;;;5033476;28;20231;-80
2023/10/27 01:00:07;;;;;;;11.27;1.73;;;;;;;;;;5034315;28;20220;-79
2023/10/27 01:02:35;;;;;;;14.63;2.17;;;;;;;;;;5033883;28;20734;-79
2023/10/27 01:05:02;;;;;;;10.50;2.00;;;;;;;;;;5033508;28;20739;-78
2023/10/27 01:07:31;;;;;;;8.47;1.83;;;;;;;;;;5033924;28;20703;-79
2023/10/27 01:09:58;;;;;;;9.53;1.60;;;;;;;;;;5033786;28;20299;-79
2023/10/27 01:12:25;;;;;;;9.47;1.80;;;;;;;;;;5033692;28;20225;-79
2023/10/27 01:14:52;;;;;;;11.57;1.70;;;;;;;;;;5034196;28;20287;-79
2023/10/27 01:17:19;;;;;;;14.77;1.50;;;;;;;;;;5033489;28;20311;-80
2023/10/27 01:19:47;;;;;;;16.70;1.97;;;;;;;;;;5033146;28;20247;-79
2023/10/27 01:22:15;;;;;;;11.53;1.70;;;;;;;;;;5033567;28;20223;-80
2023/10/27 01:24:43;;;;;;;14.63;2.00;;;;;;;;;;5033492;28;20204;-79
2023/10/27 01:27:10;;;;;;;9.30;1.33;;;;;;;;;;5033336;28;20284;-80
2023/10/27 01:29:38;;;;;;;9.37;1.30;;;;;;;;;;5033484;28;20859;-80
2023/10/27 01:32:05;;;;;;;9.60;1.50;;;;;;;;;;5033511;28;20283;-79
2023/10/27 01:34:32;;;;;;;13.23;1.83;;;;;;;;;;5032908;28;20323;-79
2023/10/27 01:37:00;;;;;;;7.47;1.80;;;;;;;;;;5033138;28;20255;-79
2023/10/27 01:39:27;;;;;;;9.20;1.80;;;;;;;;;;5033182;28;20239;-79
2023/10/27 01:41:55;;;;;;;12.53;1.63;;;;;;;;;;5033519;28;20304;-80
2023/10/27 01:44:22;;;;;;;11.27;1.70;;;;;;;;;;5033250;28;20207;-80
2023/10/27 01:46:50;;;;;;;8.53;1.27;;;;;;;;;;5032535;28;20197;-79
2023/10/27 01:49:18;;;;;;;11.53;1.97;;;;;;;;;;5032090;28;20291;-81
2023/10/27 01:51:45;;;;;;;12.43;2.43;;;;;;;;;;5033011;28;20197;-82
2023/10/27 01:54:12;;;;;;;16.87;1.93;;;;;;;;;;5032866;28;20278;-80
2023/10/27 01:56:39;;;;;;;12.80;2.03;;;;;;;;;;5033008;28;20307;-78
2023/10/27 01:59:08;;;;;;;8.33;1.63;;;;;;;;;;5033109;28;20679;-79
2023/10/27 02:01:35;;;;;;;6.33;1.57;;;;;;;;;;5032652;28;20275;-80
2023/10/27 02:04:02;;;;;;;7.87;1.73;;;;;;;;;;5032421;28;20231;-79
2023/10/27 02:06:29;;;;;;;7.53;1.40;;;;;;;;;;5032652;28;20633;-80
2023/10/27 02:08:56;;;;;;;10.37;1.47;;;;;;;;;;5032862;28;20204;-80
2023/10/27 02:11:24;;;;;;;11.10;1.20;;;;;;;;;;5033005;28;20199;-79
2023/10/27 02:13:51;;;;;;;10.50;1.50;;;;;;;;;;5033093;28;20283;-79
2023/10/27 02:16:19;;;;;;;13.43;1.70;;;;;;;;;;5032569;28;20196;-79
2023/10/27 02:18:46;;;;;;;8.83;1.60;;;;;;;;;;5022318;28;20220;-78
2023/10/27 02:21:14;;;;;;;11.07;1.70;;;;;;;;;;5032065;28;20231;-79
2023/10/27 02:23:41;;;;;;;8.80;1.63;;;;;;;;;;5032803;28;20287;-80
2023/10/27 02:26:08;;;;;;;6.27;1.43;;;;;;;;;;5032466;28;20203;-78
2023/10/27 02:28:37;;;;;;;11.40;1.40;;;;;;;;;;5032331;28;20295;-79
2023/10/27 02:31:04;;;;;;;6.30;1.10;;;;;;;;;;5031836;28;20232;-79
2023/10/27 02:33:33;;;;;;;7.67;1.47;;;;;;;;;;5032085;28;20197;-80
2023/10/27 02:36:00;;;;;;;7.87;1.30;;;;;;;;;;5032636;28;20295;-80
2023/10/27 02:38:27;;;;;;;8.27;1.40;;;;;;;;;;5032467;28;20266;-80
2023/10/27 02:40:54;;;;;;;5.57;1.13;;;;;;;;;;5031926;28;20231;-80
2023/10/27 02:43:21;;;;;;;6.73;1.30;;;;;;;;;;5032138;28;20284;-79
2023/10/27 02:45:49;;;;;;;8.03;1.50;;;;;;;;;;5032120;28;20203;-79
2023/10/27 02:48:16;;;;;;;6.93;1.10;;;;;;;;;;5032495;28;20232;-80
2023/10/27 02:50:45;;;;;;;4.93;1.20;;;;;;;;;;5031987;28;20660;-80
2023/10/27 02:53:12;;;;;;;6.90;1.20;;;;;;;;;;5031988;28;20235;-79
2023/10/27 02:55:39;;;;;;;7.33;1.17;;;;;;;;;;5031859;28;20224;-80
2023/10/27 02:58:07;;;;;;;6.40;1.40;;;;;;;;;;5032210;28;20232;-80
2023/10/27 03:00:34;;;;;;;6.37;0.93;;;;;;;;;;5031310;28;20200;-79
2023/10/27 03:03:01;;;;;;;7.10;1.10;;;;;;;;;;5031993;28;20287;-80
2023/10/27 03:05:28;;;;;;;8.20;1.30;;;;;;;;;;5031840;28;20287;-80
2023/10/27 03:07:57;;;;;;;7.90;1.20;;;;;;;;;;5032264;28;20192;-79
2023/10/27 03:10:24;;;;;;;10.33;1.53;;;;;;;;;;5031738;28;20216;-78
2023/10/27 03:12:51;;;;;;;6.70;1.30;;;;;;;;;;5031498;28;20231;-79
2023/10/27 03:15:18;;;;;;;8.53;1.33;;;;;;;;;;5031927;28;20236;-80
2023/10/27 03:17:45;;;;;;;8.57;1.30;;;;;;;;;;5031507;28;20262;-80
2023/10/27 03:20:13;;;;;;;9.23;1.20;;;;;;;;;;5031653;28;20287;-79
2023/10/27 03:22:40;;;;;;;8.57;1.40;;;;;;;;;;5031826;28;20803;-80
2023/10/27 03:25:09;;;;;;;8.87;1.07;;;;;;;;;;5031481;28;20676;-80
2023/10/27 03:27:36;;;;;;;6.53;1.07;;;;;;;;;;5031693;28;20791;-79
2023/10/27 03:30:04;;;;;;;7.67;1.53;;;;;;;;;;5031167;28;20232;-79
2023/10/27 03:32:31;;;;;;;7.60;1.20;;;;;;;;;;5031412;28;20201;-79
2023/10/27 03:35:00;;;;;;;10.73;1.50;;;;;;;;;;5030950;28;20296;-80
2023/10/27 03:37:27;;;;;;;8.57;1.50;;;;;;;;;;5031424;28;20274;-79
2023/10/27 03:39:54;;;;;;;11.43;1.57;;;;;;;;;;5031327;28;20275;-79
2023/10/27 03:42:23;;;;;;;11.53;1.63;;;;;;;;;;5031816;28;20216;-78
2023/10/27 03:44:51;;;;;;;10.90;1.50;;;;;;;;;;5031161;28;20196;-79
2023/10/27 03:47:18;;;;;;;11.37;1.40;;;;;;;;;;5031361;28;20200;-80
2023/10/27 03:49:45;;;;;;;8.70;1.20;;;;;;;;;;5031416;28;20680;-79
2023/10/27 03:52:12;;;;;;;10.63;1.70;;;;;;;;;;5031264;28;20192;-80
2023/10/27 03:54:39;;;;;;;7.87;1.60;;;;;;;;;;5031460;28;20192;-80
2023/10/27 03:57:08;;;;;;;13.10;1.63;;;;;;;;;;5031151;28;20236;-80
2023/10/27 03:59:36;;;;;;;12.50;1.67;;;;;;;;;;5030588;28;20232;-79
2023/10/27 04:02:04;;;;;;;8.33;1.53;;;;;;;;;;5031533;28;20201;-80
2023/10/27 04:04:31;;;;;;;13.13;1.87;;;;;;;;;;5031184;28;20283;-79
2023/10/27 04:06:59;;;;;;;13.37;2.00;;;;;;;;;;5031213;28;20224;-79
2023/10/27 04:09:26;;;;;;;14.37;1.63;;;;;;;;;;5031298;28;20680;-78
2023/10/27 04:11:53;;;;;;;14.87;1.77;;;;;;;;;;5034258;28;20196;-79
2023/10/27 04:14:21;;;;;;;13.87;1.70;;;;;;;;;;5034771;28;20651;-79
2023/10/27 04:16:49;;;;;;;10.47;1.50;;;;;;;;;;5035006;28;20251;-80
2023/10/27 04:19:16;;;;;;;10.60;1.53;;;;;;;;;;5034740;28;20333;-80
2023/10/27 04:21:44;;;;;;;15.93;1.43;;;;;;;;;;5034908;28;20219;-80
2023/10/27 04:24:11;;;;;;;12.33;2.43;;;;;;;;;;5034679;28;20279;-80
2023/10/27 04:26:38;;;;;;;10.00;1.80;;;;;;;;;;5034991;28;20251;-80
2023/10/27 04:29:06;;;;;;;12.67;1.83;;;;;;;;;;5034474;28;20217;-80
2023/10/27 04:31:33;;;;;;;13.47;1.40;;;;;;;;;;5034828;28;20197;-81
2023/10/27 04:34:03;;;;;;;13.60;1.53;;;;;;;;;;5034607;28;20193;-80
2023/10/27 04:36:30;;;;;;;13.27;1.50;;;;;;;;;;5034728;28;20203;-79
2023/10/27 04:38:58;;;;;;;10.87;1.83;;;;;;;;;;5034625;28;20336;-80
2023/10/27 04:41:25;;;;;;;13.10;1.57;;;;;;;;;;5034604;28;20196;-80
2023/10/27 04:43:52;;;;;;;12.53;1.60;;;;;;;;;;5034494;28;20200;-80
2023/10/27 04:46:19;;;;;;;9.67;1.80;;;;;;;;;;5034492;28;20283;-81
2023/10/27 04:48:46;;;;;;;10.83;1.60;;;;;;;;;;5034223;28;20239;-80
2023/10/27 04:51:15;;;;;;;9.33;1.67;;;;;;;;;;5034285;28;20239;-82
2023/10/27 04:53:42;;;;;;;9.70;1.47;;;;;;;;;;5034237;28;20575;-82
2023/10/27 04:56:09;;;;;;;10.00;1.50;;;;;;;;;;5034079;28;20228;-81
2023/10/27 04:58:38;;;;;;;17.00;1.87;;;;;;;;;;5033905;28;20327;-82
2023/10/27 05:01:05;;;;;;;10.53;1.70;;;;;;;;;;5033930;28;20639;-81
2023/10/27 05:03:33;;;;;;;9.47;1.73;;;;;;;;;;5034349;28;20220;-82
2023/10/27 05:06:07;;;;;;;9.80;1.57;;;;;;;;;;5034282;28;20192;-81
2023/10/27 05:08:36;;;;;;;17.17;2.47;;;;;;;;;;5034306;28;20636;-82
2023/10/27 05:11:03;;;;;;;15.47;2.80;;;;;;;;;;5033543;28;20224;-82
2023/10/27 05:13:31;;;;;;;15.80;2.40;;;;;;;;;;5033624;28;20199;-81
2023/10/27 05:15:58;;;;;;;13.50;2.40;;;;;;;;;;5033939;28;20196;-82
2023/10/27 05:18:25;;;;;;;17.57;2.40;;;;;;;;;;5033192;28;21050;-81
2023/10/27 05:20:53;;;;;;;11.07;2.00;;;;;;;;;;5034162;28;20204;-79
2023/10/27 05:23:20;;;;;;;15.27;2.30;;;;;;;;;;5032556;28;20621;-79
2023/10/27 05:25:48;;;;;;;18.83;2.63;;;;;;;;;;5033037;28;20294;-80
2023/10/27 05:28:16;;;;;;;14.13;2.40;;;;;;;;;;5033536;28;20239;-80
2023/10/27 05:30:46;;;;;;;11.17;1.87;;;;;;;;;;5033858;28;20275;-80
2023/10/27 05:33:13;;;;;;;19.17;2.30;;;;;;;;;;5033721;28;20199;-80
2023/10/27 05:35:40;;;;;;;13.93;1.90;;;;;;;;;;5033430;28;20239;-79
2023/10/27 05:38:07;;;;;;;17.87;2.67;;;;;;;;;;5033519;28;20264;-80
2023/10/27 05:40:34;;;;;;;13.40;2.20;;;;;;;;;;5033806;28;20228;-80
2023/10/27 05:43:03;;;;;;;15.80;2.10;;;;;;;;;;5033352;28;20204;-80
2023/10/27 05:45:30;;;;;;;14.23;2.17;;;;;;;;;;5027899;28;20216;-79
2023/10/27 05:47:57;;;;;;;15.90;2.27;;;;;;;;;;5002519;28;20283;-80
2023/10/27 05:50:24;;;;;;;18.27;2.63;;;;;;;;;;5031069;28;20283;-79
2023/10/27 05:52:52;;;;;;;14.10;2.03;;;;;;;;;;5033176;28;20236;-79
2023/10/27 05:55:19;;;;;;;13.43;2.10;;;;;;;;;;5032716;28;20601;-78
2023/10/27 05:57:46;;;;;;;11.60;2.10;;;;;;;;;;5032992;28;20231;-79
2023/10/27 06:00:15;;;;;;;16.07;2.57;;;;;;;;;;5033030;28;20200;-79
2023/10/27 06:02:42;;;;;;;14.00;2.30;;;;;;;;;;5032717;28;20296;-79
2023/10/27 06:05:10;;;;;;;17.20;2.10;;;;;;;;;;5031675;28;20239;-80
2023/10/27 06:07:37;;;;;;;15.30;2.17;;;;;;;;;;5032014;28;20212;-79
2023/10/27 06:10:04;;;;;;;16.00;2.30;;;;;;;;;;5032506;28;20219;-80
2023/10/27 06:12:31;;;;;;;24.90;2.40;;;;;;;;;;5032697;28;20283;-80
2023/10/27 06:14:59;;;;;;;13.17;2.40;;;;;;;;;;5032250;28;20295;-79
2023/10/27 06:17:27;;;;;;;19.03;2.37;;;;;;;;;;5032111;28;20295;-80
2023/10/27 06:19:54;;;;;;;16.20;2.50;;;;;;;;;;5032082;28;20271;-79
2023/10/27 06:22:22;;;;;;;16.83;2.40;;;;;;;;;;5032079;28;20204;-80
2023/10/27 06:24:49;;;;;;;18.33;2.77;;;;;;;;;;5031900;28;20287;-80
2023/10/27 06:27:16;;;;;;;18.83;3.33;;;;;;;;;;5031644;28;20239;-81
2023/10/27 06:29:43;;;;;;;22.23;3.00;;;;;;;;;;5031728;28;20666;-81
2023/10/27 06:32:10;;;;;;;14.97;2.37;;;;;;;;;;5032082;28;20246;-81
2023/10/27 06:34:39;;;;;;;11.23;2.50;;;;;;;;;;5031438;28;20609;-79
2023/10/27 06:37:07;;;;;;;15.40;2.40;;;;;;;;;;5031683;28;20291;-81
2023/10/27 06:39:34;;;;;;;18.40;2.77;;;;;;;;;;5031489;28;20238;-80
2023/10/27 06:42:02;;;;;;;15.33;2.43;;;;;;;;;;5031836;28;20649;-80
2023/10/27 06:44:29;;;;;;;17.10;2.40;;;;;;;;;;5032262;28;20672;-79
2023/10/27 06:46:56;;;;;;;16.07;2.57;;;;;;;;;;5031833;28;20224;-81
2023/10/27 06:49:23;;;;;;;15.60;2.30;;;;;;;;;;5031302;28;20208;-80
2023/10/27 06:51:52;;;;;;;16.87;2.43;;;;;;;;;;5031771;28;20192;-80
2023/10/27 06:54:19;;;;;;;17.57;2.63;;;;;;;;;;5031185;28;20196;-80
2023/10/27 06:56:46;;;;;;;14.70;2.33;;;;;;;;;;5031475;28;20208;-80
2023/10/27 06:59:14;;;;;;;14.87;2.50;;;;;;;;;;5031663;28;20224;-80
2023/10/27 07:01:43;;;;;;;17.27;3.17;;;;;;;;;;5031099;28;20406;-79
2023/10/27 07:04:11;;;;;;;17.87;3.10;;;;;;;;;;5031570;28;20196;-80
2023/10/27 07:06:38;;;;;;;18.47;3.00;;;;;;;;;;5031271;28;20224;-80
2023/10/27 07:09:07;;;;;;;19.63;2.97;;;;;;;;;;5031504;28;20200;-80
2023/10/27 07:11:34;;;;;;;17.03;3.23;;;;;;;;;;5031563;28;20205;-81
2023/10/27 07:14:01;;;;;;;15.83;2.87;;;;;;;;;;5031140;28;20275;-80
2023/10/27 07:16:28;;;;;;;14.97;3.53;;;;;;;;;;5031229;28;20196;-80
2023/10/27 07:18:56;;;;;;;18.17;3.10;;;;;;;;;;5031349;28;20252;-80
2023/10/27 07:21:23;;;;;;;15.93;3.17;;;;;;;;;;5030599;28;20214;-80
2023/10/27 07:23:50;;;;;;;11.93;2.63;;;;;;;;;;5031281;28;20276;-80
2023/10/27 07:26:19;;;;;;;22.70;3.17;;;;;;;;;;5030794;28;20232;-80
2023/10/27 07:28:46;;;;;;;16.60;3.03;;;;;;;;;;5031308;28;20204;-79
2023/10/27 07:31:13;;;;;;;16.83;3.30;;;;;;;;;;5030763;28;20220;-80
2023/10/27 07:33:41;;;;;;;15.73;2.97;;;;;;;;;;5031046;28;20224;-80
2023/10/27 07:36:10;;;;;;;15.10;2.90;;;;;;;;;;5030544;28;20581;-79
2023/10/27 07:38:37;;;;;;;17.80;2.47;;;;;;;;;;5031399;28;20315;-80
2023/10/27 07:41:05;;;;;;;12.30;2.73;;;;;;;;;;5030678;28;20246;-80
2023/10/27 07:43:33;;;;;;;16.40;2.67;;;;;;;;;;5030995;28;20676;-80
2023/10/27 07:46:01;;;;;;;14.23;2.57;;;;;;;;;;5030566;28;20197;-81
2023/10/27 07:48:29;;;;;;;19.17;3.20;;;;;;;;;;5030363;28;20212;-80
2023/10/27 07:50:57;;;;;;;17.48;3.10;;;;;;;;;;5030175;28;20193;-81
2023/10/27 07:53:25;;;;;;;13.88;3.25;;;;;;;;;;5031405;28;20200;-81
2023/10/27 07:55:52;;;;;;;13.30;2.90;;;;;;;;;;5031034;28;20735;-79
2023/10/27 07:58:19;;;;;;;13.05;2.53;;;;;;;;;;5030801;28;20278;-80
2023/10/27 08:00:48;;;;;;;13.13;1.92;;;;;;;;;;5031076;28;20192;-80
2023/10/27 08:03:15;;;;;;;11.77;2.97;;;;;;;;;;5030394;28;20250;-80
2023/10/27 08:05:43;;;;;;;13.45;2.70;;;;;;;;;;5030871;28;20288;-79
2023/10/27 08:08:10;;;;;;;12.35;2.63;;;;;;;;;;5030595;28;20594;-80
2023/10/27 08:10:38;;;;;;;14.45;3.03;;;;;;;;;;5030746;28;20200;-80
2023/10/27 08:13:06;;;;;;;13.00;2.85;;;;;;;;;;5030605;28;20200;-80
2023/10/27 08:15:33;;;;;;;10.33;2.47;;;;;;;;;;5030920;28;20201;-80
2023/10/27 08:18:02;;;;;;;12.60;2.53;;;;;;;;;;5030728;28;20243;-80
2023/10/27 08:20:29;;;;;;;13.37;2.77;;;;;;;;;;5030048;28;20362;-80
2023/10/27 08:22:57;;;;;;;13.30;2.43;;;;;;;;;;5030654;28;20205;-78
2023/10/27 08:25:24;;;;;;;13.43;3.10;;;;;;;;;;5031001;28;20228;-81
2023/10/27 08:27:51;;;;;;;13.53;2.50;;;;;;;;;;5030747;28;20284;-80
2023/10/27 08:30:18;;;;;;;12.60;2.60;;;;;;;;;;5030573;28;20327;-80
2023/10/27 08:32:46;;;;;;;13.73;2.92;;;;;;;;;;5030961;28;20228;-80
2023/10/27 08:35:14;;;;;;;14.88;2.75;;;;;;;;;;5030581;28;20204;-79
2023/10/27 08:37:41;;;;;;;13.27;3.73;;;;;;;;;;5034429;28;20692;-79
2023/10/27 08:40:13;;;;;;;15.10;3.78;;;;;;;;;;4822902;28;10001682;-81
2023/10/27 08:42:42;;;;;;;13.57;3.73;;;;;;;;;;5027123;28;20450;-80
2023/10/27 08:45:09;;;;;;;16.40;5.10;;;;;;;;;;5027263;28;20216;-80
2023/10/27 08:47:37;;;;;;;17.83;4.63;;;;;;;;;;5027024;28;20200;-80
2023/10/27 08:50:04;;;;;;;13.87;3.80;;;;;;;;;;5026868;28;20243;-81
2023/10/27 08:52:33;;;;;;;17.07;4.07;;;;;;;;;;5026968;28;20200;-80
2023/10/27 08:55:03;;;;;;;14.17;4.50;;;;;;;;;;5026980;28;20677;-81
2023/10/27 08:57:30;;;;;;;14.27;3.50;;;;;;;;;;5028760;28;20207;-81
2023/10/27 08:59:57;;;;;;;22.50;3.97;;;;;;;;;;5029984;28;20712;-80
2023/10/27 09:02:32;;;;;;;17.70;3.43;;;;;;;;;;5029918;28;20209;-80
2023/10/27 09:05:03;;;;;;;16.83;2.90;;;;;;;;;;5032389;28;20301;-80
2023/10/27 09:07:30;;;;;;;14.77;2.70;;;;;;;;;;5033980;28;20200;-81
2023/10/27 09:09:59;;;;;;;15.00;3.10;;;;;;;;;;5033584;28;20238;-81
2023/10/27 09:12:28;;;;;;;16.23;2.57;;;;;;;;;;5033787;28;20247;-80
2023/10/27 09:15:04;;;;;;;14.50;3.03;;;;;;;;;;5033625;28;20200;-80
2023/10/27 09:17:31;;;;;;;15.10;2.70;;;;;;;;;;5033351;28;20201;-80
2023/10/27 09:20:06;;;;;;;18.27;3.13;;;;;;;;;;5033260;28;20220;-80
2023/10/27 09:22:33;;;;;;;12.70;2.63;;;;;;;;;;5030681;28;20235;-80
2023/10/27 09:25:18;;;;;;;15.43;2.70;;;;;;;;;;5033035;28;20286;-80
2023/10/27 09:27:45;;;;;;;11.90;2.80;;;;;;;;;;5033370;28;20200;-79
2023/10/27 09:30:13;;;;;;;13.87;2.67;;;;;;;;;;5032257;28;20233;-79
2023/10/27 09:32:44;;;;;;;14.80;2.60;;;;;;;;;;5032996;28;20192;-79
2023/10/27 09:35:13;;;;;;;13.47;2.57;;;;;;;;;;5034997;28;20572;-80
2023/10/27 09:37:42;;;;;;;13.83;2.37;;;;;;;;;;5044676;28;20204;-80
2023/10/27 09:40:11;;;;;;;15.10;2.90;;;;;;;;;;5037565;28;20213;-80
2023/10/27 09:42:39;;;;;;;13.97;2.50;;;;;;;;;;5043561;28;20346;-80
2023/10/27 09:45:11;;;;;;;18.10;2.67;;;;;;;;;;5034045;28;20228;-80
2023/10/27 09:47:45;;;;;;;13.57;2.50;;;;;;;;;;5048774;28;20204;-80
2023/10/27 09:50:14;;;;;;;15.37;3.20;;;;;;;;;;5040870;28;20196;-80
2023/10/27 09:52:43;;;;;;;13.10;2.80;;;;;;;;;;5024883;28;20211;-81
2023/10/27 09:55:13;;;;;;;14.93;2.80;;;;;;;;;;5035311;28;20196;-81
2023/10/27 09:57:44;;;;;;;13.40;2.43;;;;;;;;;;5020007;28;20287;-81
2023/10/27 10:00:13;;;;;;;16.17;2.63;;;;;;;;;;5033553;28;20228;-80
2023/10/27 10:02:42;;;;;;;17.53;3.07;;;;;;;;;;5037737;28;20203;-81
2023/10/27 10:05:11;;;;;;;15.00;2.90;;;;;;;;;;5048002;28;20250;-80
2023/10/27 10:07:41;;;;;;;11.63;3.10;;;;;;;;;;5040274;28;20200;-81
2023/10/27 10:10:21;;;;;;;17.50;2.80;;;;;;;;;;5038943;28;20196;-83
2023/10/27 10:13:04;;;;;;;16.07;3.00;;;;;;;;;;5048587;28;20286;-79
2023/10/27 10:15:32;;;;;;;17.77;3.40;;;;;;;;;;5038646;28;20257;-81
2023/10/27 10:17:59;;;;;;;13.73;2.77;;;;;;;;;;5030848;28;20236;-82
2023/10/27 10:20:47;;;;;;;12.00;2.33;;;;;;;;;;5031721;28;20699;-81
2023/10/27 10:23:15;;;;;;;19.67;2.93;;;;;;;;;;5032068;28;20207;-81
2023/10/27 10:25:51;;;;;;;18.60;3.17;;;;;;;;;;5033247;28;20188;-81
2023/10/27 10:28:27;;;;;;;16.53;2.97;;;;;;;;;;5032404;28;20203;-80
2023/10/27 10:31:13;;;;;;;18.43;3.20;;;;;;;;;;5031719;28;20671;-81
2023/10/27 10:33:44;;;;;;;13.10;2.50;;;;;;;;;;5031926;28;20193;-82
2023/10/27 10:36:25;;;;;;;14.50;2.93;;;;;;;;;;5013823;28;20738;-81
2023/10/27 10:38:59;;;;;;;17.03;2.80;;;;;;;;;;5026063;28;21616;-82
2023/10/27 10:41:47;;;;;;;14.17;2.67;;;;;;;;;;5027470;28;20200;-82
2023/10/27 10:44:16;;;;;;;14.87;2.93;;;;;;;;;;5026060;28;20196;-81
2023/10/27 10:46:44;;;;;;;17.83;3.10;;;;;;;;;;5030568;28;20232;-81
2023/10/27 10:49:11;;;;;;;9.30;2.33;;;;;;;;;;5031976;28;20235;-82
2023/10/27 10:51:39;;;;;;;18.40;2.90;;;;;;;;;;5031440;28;20205;-81
2023/10/27 10:54:13;;;;;;;16.03;2.80;;;;;;;;;;5030330;28;20317;-79
2023/10/27 10:56:42;;;;;;;15.23;2.60;;;;;;;;;;5030421;28;20390;-80
2023/10/27 10:59:09;;;;;;;16.93;3.20;;;;;;;;;;5049735;28;20212;-79
2023/10/27 11:01:40;;;;;;;15.17;3.60;;;;;;;;;;5044829;28;20232;-79
2023/10/27 11:04:07;;;;;;;20.83;3.93;;;;;;;;;;5031271;28;20703;-79
2023/10/27 11:06:35;;;;;;;17.93;4.20;;;;;;;;;;5031584;28;20817;-79
2023/10/27 11:09:04;;;;;;;9.10;2.67;;;;;;;;;;5031071;28;20744;-80
2023/10/27 11:11:34;;;;;;;7.90;2.20;;;;;;;;;;5022527;28;20254;-79
2023/10/27 11:14:03;;;;;;;10.20;2.77;;;;;;;;;;5028657;28;20291;-80
2023/10/27 11:16:31;;;;;;;11.33;3.30;;;;;;;;;;5036064;28;20204;-80
2023/10/27 11:19:02;;;;;;;7.40;2.37;;;;;;;;;;5037949;28;20200;-79
2023/10/27 11:21:30;;;;;;;6.93;1.93;;;;;;;;;;5033723;28;20711;-79
2023/10/27 11:23:57;;;;;;;5.60;1.80;;;;;;;;;;5047914;28;20234;-80
2023/10/27 11:26:25;;;;;;;6.97;2.07;;;;;;;;;;5031022;28;20227;-79
2023/10/27 11:28:54;;;;;;;4.77;1.30;;;;;;;;;;5030793;28;20207;-80
2023/10/27 11:31:27;;;;;;;5.67;1.70;;;;;;;;;;5031394;28;20248;-79
2023/10/27 11:33:57;;;;;;;8.53;3.00;;;;;;;;;;5029224;28;20197;-79
2023/10/27 11:36:26;;;;;;;10.60;5.23;;;;;;;;;;5033737;28;20199;-78
2023/10/27 11:38:53;;;;;;;8.77;4.03;;;;;;;;;;5036073;28;20224;-80
2023/10/27 11:41:20;;;;;;;8.73;5.03;;;;;;;;;;5046699;28;20318;-80
2023/10/27 11:43:47;;;;;;;10.97;4.97;;;;;;;;;;5037354;28;20326;-79
2023/10/27 11:46:15;;;;;;;8.60;4.20;;;;;;;;;;5045900;28;20203;-79
2023/10/27 11:48:43;;;;;;;9.33;4.10;;;;;;;;;;5034185;28;20323;-79
2023/10/27 11:51:10;;;;;;;10.70;6.60;;;;;;;;;;5030027;28;20642;-79
2023/10/27 11:53:43;;;;;;;11.53;5.23;;;;;;;;;;5039348;28;20639;-80
2023/10/27 11:56:10;;;;;;;8.93;4.53;;;;;;;;;;5037189;28;20204;-80
2023/10/27 11:58:38;;;;;;;11.90;5.63;;;;;;;;;;5046511;28;20206;-79
2023/10/27 12:01:06;;;;;;;9.53;4.63;;;;;;;;;;5030679;28;20259;-80
2023/10/27 12:03:33;;;;;;;9.63;3.33;;;;;;;;;;5032130;28;20245;-79
2023/10/27 12:06:00;;;;;;;10.10;4.90;;;;;;;;;;5031400;28;20200;-80
2023/10/27 12:08:28;;;;;;;13.37;6.63;;;;;;;;;;5028155;28;20196;-79
2023/10/27 12:10:59;;;;;;;14.07;7.50;;;;;;;;;;5023424;28;20603;-80
2023/10/27 12:13:26;;;;;;;9.20;5.43;;;;;;;;;;5031200;28;20213;-79
2023/10/27 12:15:54;;;;;;;10.40;6.27;;;;;;;;;;5029960;28;20204;-80
2023/10/27 12:18:21;;;;;;;9.90;5.03;;;;;;;;;;5026172;28;20669;-78
2023/10/27 12:20:49;;;;;;;10.47;5.40;;;;;;;;;;5039348;28;20251;-76
2023/10/27 12:23:18;;;;;;;11.13;5.57;;;;;;;;;;5040914;28;20287;-77
2023/10/27 12:25:45;;;;;;;10.83;4.90;;;;;;;;;;5037192;28;20684;-77
2023/10/27 12:28:13;;;;;;;10.57;4.50;;;;;;;;;;5044317;28;20290;-76
2023/10/27 12:30:41;;;;;;;9.43;3.17;;;;;;;;;;5029341;28;20754;-77
2023/10/27 12:33:09;;;;;;;8.10;3.40;;;;;;;;;;5030671;28;20216;-76
2023/10/27 12:35:37;;;;;;;8.53;3.57;;;;;;;;;;5035375;28;20207;-77
2023/10/27 12:38:05;;;;;;;7.63;3.30;;;;;;;;;;5033058;28;20201;-76
2023/10/27 12:40:34;;;;;;;6.90;2.70;;;;;;;;;;5032524;28;20335;-76
2023/10/27 12:43:01;;;;;;;8.87;3.00;;;;;;;;;;5034519;28;20200;-77
2023/10/27 12:45:30;;;;;;;11.47;3.60;;;;;;;;;;5024635;28;20662;-77
2023/10/27 12:47:57;;;;;;;12.53;4.60;;;;;;;;;;5026623;28;20283;-76
2023/10/27 12:50:25;;;;;;;11.47;4.23;;;;;;;;;;5025499;28;20287;-77
2023/10/27 12:52:52;;;;;;;14.60;5.00;;;;;;;;;;5031890;28;20220;-77
2023/10/27 12:55:19;;;;;;;14.90;5.77;;;;;;;;;;5022634;28;20196;-76
2023/10/27 12:57:46;;;;;;;12.83;5.87;;;;;;;;;;5033933;28;20236;-76
2023/10/27 13:00:17;;;;;;;9.73;3.80;;;;;;;;;;5033447;28;20260;-77
2023/10/27 13:02:46;;;;;;;13.13;3.83;;;;;;;;;;5033260;28;20201;-77
2023/10/27 13:05:14;;;;;;;12.50;3.30;;;;;;;;;;5031994;28;20287;-77
2023/10/27 13:07:42;;;;;;;9.70;2.90;;;;;;;;;;5029683;28;20693;-77
2023/10/27 13:10:10;;;;;;;9.73;3.23;;;;;;;;;;5031465;28;20287;-76
2023/10/27 13:12:38;;;;;;;9.87;3.20;;;;;;;;;;5030705;28;20236;-77
2023/10/27 13:15:06;;;;;;;8.17;2.60;;;;;;;;;;5032576;28;20247;-77
2023/10/27 13:17:34;;;;;;;10.17;2.43;;;;;;;;;;5031868;28;20196;-77
2023/10/27 13:20:04;;;;;;;7.33;2.73;;;;;;;;;;5029599;28;20287;-77
2023/10/27 13:22:33;;;;;;;8.83;2.07;;;;;;;;;;5031052;28;20227;-77
2023/10/27 13:25:00;;;;;;;8.93;2.30;;;;;;;;;;5023181;28;20196;-77
2023/10/27 13:27:30;;;;;;;9.63;2.33;;;;;;;;;;5029807;28;20199;-77
2023/10/27 13:29:58;;;;;;;7.00;2.27;;;;;;;;;;5032081;28;20320;-77
2023/10/27 13:32:26;;;;;;;8.37;2.20;;;;;;;;;;5032785;28;20215;-77
2023/10/27 13:34:54;;;;;;;8.80;2.27;;;;;;;;;;5032053;28;20254;-78
2023/10/27 13:37:23;;;;;;;5.53;2.13;;;;;;;;;;5032099;28;20587;-77
2023/10/27 13:39:50;;;;;;;5.97;2.20;;;;;;;;;;5025478;28;20229;-77
2023/10/27 13:42:18;;;;;;;6.33;2.50;;;;;;;;;;5024183;28;20259;-78
2023/10/27 13:44:45;;;;;;;6.37;1.83;;;;;;;;;;5031744;28;20283;-78
2023/10/27 13:47:12;;;;;;;6.37;2.07;;;;;;;;;;5032463;28;20235;-77
2023/10/27 13:49:39;;;;;;;4.03;1.40;;;;;;;;;;5031843;28;20200;-78
2023/10/27 13:52:07;;;;;;;5.07;1.60;;;;;;;;;;5032488;28;20205;-78
2023/10/27 13:54:37;;;;;;;4.40;1.50;;;;;;;;;;5031245;28;20576;-77
2023/10/27 13:57:04;;;;;;;3.85;1.30;;;;;;;;;;5032500;28;20200;-77
2023/10/27 13:59:31;;;;;;;4.00;1.63;;;;;;;;;;5032836;28;20197;-76
2023/10/27 14:01:59;;;;;;;6.43;1.73;;;;;;;;;;5031800;28;20319;-78
2023/10/27 14:04:27;;;;;;;4.32;1.80;;;;;;;;;;5029431;28;20215;-77
2023/10/27 14:06:56;;;;;;;4.40;1.88;;;;;;;;;;5030425;28;20203;-78
2023/10/27 14:09:25;;;;;;;5.22;1.73;;;;;;;;;;5032593;28;20682;-77
2023/10/27 14:11:53;;;;;;;5.25;1.25;;;;;;;;;;5031519;28;20235;-78
2023/10/27 14:14:22;;;;;;;3.33;1.33;;;;;;;;;;5030028;28;20643;-79
2023/10/27 14:16:50;;;;;;;4.82;1.30;;;;;;;;;;5032204;28;20606;-79
2023/10/27 14:19:17;;;;;;;4.63;2.28;;;;;;;;;;5024836;28;20197;-79
2023/10/27 14:21:46;;;;;;;3.88;1.42;;;;;;;;;;5030266;28;20228;-78
2023/10/27 14:24:13;;;;;;;5.32;1.90;;;;;;;;;;5030749;28;20247;-80
2023/10/27 14:26:42;;;;;;;4.03;1.40;;;;;;;;;;5031351;28;20200;-79
2023/10/27 14:29:11;;;;;;;4.18;1.60;;;;;;;;;;5030588;28;20212;-81
2023/10/27 14:31:39;;;;;;;4.15;1.90;;;;;;;;;;5032056;28;20850;-80
2023/10/27 14:34:06;;;;;;;5.63;2.25;;;;;;;;;;5031852;28;20247;-80
2023/10/27 14:36:34;;;;;;;7.47;2.10;;;;;;;;;;5014559;28;20224;-81
2023/10/27 14:39:01;;;;;;;7.27;1.90;;;;;;;;;;5031691;28;20240;-81